Berezniki, Russia
Current Conditions -  °F | °C
As of 12:30 PM on Monday 22 Dec 2014 (Local Time) from USPP Reporting Station
Overcast Overcast  
Wind Chill: 20°   Ceiling: 1300
Heat Index: 30°   Visibility: 6mi
Dew Point: 28°   Wind: 13mph
Humidity: 93%   Direction: 210°SSW
Pressure: 29.65"   Gusts: NA
Location:  59.41°N, 56.77°E
Report Text: USPP 220730Z 21006MPS 9999 OVC013 M01/M02 Q1004 21690245 NOSIGRMK QFE742/0990 MOD ICE INC 400-1100
Loading
Personal Weather Stations






























Interactive Weather Map New forecast layout! Learn more

10-Day Weather Forecast

Advertisements
Track Severe Weather on mobile